Time;durP1;ratioP1;P1;durP2;ratioP2;P2;SDS_P1;SDS_P2;PMS_P1;PMS_P2;Temp;Humidity;BMP_temperature;BMP_pressure;BME280_temperature;BME280_humidity;BME280_pressure;Samples;Min_cycle;Max_cycle;Signal;HPM_P1;HPM_P2
2022/12/07 00:00:35;;;;;;;;;;;13.70;95.40;;;;;;5019040;28;19925;-64
2022/12/07 00:03:01;;;;;;;;;;;14.00;95.50;;;;;;5025367;28;19932;-66
2022/12/07 00:05:26;;;;;;;;;;;13.80;95.40;;;;;;5028093;28;19925;-65
2022/12/07 00:07:52;;;;;;;;;;;14.00;95.50;;;;;;5031543;28;19925;-66
2022/12/07 00:10:18;;;;;;;;;;;;;;;;;;5026947;28;19921;-66
2022/12/07 00:12:43;;;;;;;;;;;14.10;95.50;;;;;;5032725;28;20338;-66
2022/12/07 00:15:09;;;;;;;;;;;13.80;95.50;;;;;;5066672;28;19972;-64
2022/12/07 00:17:35;;;;;;;;;;;13.70;95.40;;;;;;5057966;28;20425;-64
2022/12/07 00:20:00;;;;;;;;;;;14.10;95.50;;;;;;5034192;28;20402;-64
2022/12/07 00:22:26;;;;;;;;;;;;;;;;;;5033708;28;20015;-64
2022/12/07 00:24:52;;;;;;;;;;;13.90;95.50;;;;;;5033629;28;19928;-64
2022/12/07 00:27:18;;;;;;;;;;;13.70;95.40;;;;;;5032647;28;20474;-64
2022/12/07 00:29:43;;;;;;;;;;;13.80;95.40;;;;;;5045612;28;19972;-63
2022/12/07 00:32:09;;;;;;;;;;;13.90;95.40;;;;;;5030853;28;19961;-66
2022/12/07 00:34:34;;;;;;;;;;;13.90;95.40;;;;;;5028927;28;19929;-67
2022/12/07 00:37:00;;;;;;;;;;;14.00;95.50;;;;;;5023328;28;19928;-66
2022/12/07 00:39:26;;;;;;;;;;;13.80;95.40;;;;;;5034746;28;19925;-66
2022/12/07 00:41:51;;;;;;;;;;;13.90;95.50;;;;;;5033813;28;19948;-66
2022/12/07 00:44:17;;;;;;;;;;;13.90;95.50;;;;;;5032926;28;19925;-66
2022/12/07 00:46:42;;;;;;;;;;;14.00;95.50;;;;;;5033796;28;20346;-65
2022/12/07 00:49:08;;;;;;;;;;;13.80;95.50;;;;;;5049009;28;19976;-66
2022/12/07 00:51:34;;;;;;;;;;;13.70;95.40;;;;;;5018560;28;19933;-66
2022/12/07 00:53:59;;;;;;;;;;;14.00;95.50;;;;;;5030866;28;20349;-66
2022/12/07 00:56:25;;;;;;;;;;;13.80;95.50;;;;;;5033307;28;20016;-65
2022/12/07 00:58:52;;;;;;;;;;;13.80;95.40;;;;;;5032388;28;19925;-66
2022/12/07 01:01:17;;;;;;;;;;;13.80;95.40;;;;;;5033950;28;19925;-66
2022/12/07 01:03:43;;;;;;;;;;;13.90;95.40;;;;;;5033227;28;19982;-63
2022/12/07 01:06:08;;;;;;;;;;;13.80;95.40;;;;;;5065683;28;19921;-64
2022/12/07 01:08:34;;;;;;;;;;;13.70;95.30;;;;;;5016008;28;19925;-63
2022/12/07 01:11:00;;;;;;;;;;;;;;;;;;5063423;28;19933;-64
2022/12/07 01:13:28;;;;;;;;;;;13.80;95.40;;;;;;5033779;28;19925;-64
2022/12/07 01:15:55;;;;;;;;;;;13.90;95.40;;;;;;5033824;28;19929;-64
2022/12/07 01:18:20;;;;;;;;;;;13.80;95.40;;;;;;5031599;28;19932;-64
2022/12/07 01:20:56;;;;;;;;;;;14.10;95.40;;;;;;5034569;28;19925;-64
2022/12/07 01:23:21;;;;;;;;;;;14.00;95.40;;;;;;5035083;28;19925;-65
2022/12/07 01:25:53;;;;;;;;;;;13.80;95.40;;;;;;5033592;28;19932;-64
2022/12/07 01:28:19;;;;;;;;;;;14.00;95.40;;;;;;5034153;28;20386;-67
2022/12/07 01:30:44;;;;;;;;;;;13.90;95.40;;;;;;5038147;28;19971;-66
2022/12/07 01:33:10;;;;;;;;;;;13.80;95.40;;;;;;5065762;28;19979;-66
2022/12/07 01:35:35;;;;;;;;;;;14.00;95.40;;;;;;5037302;28;20271;-66
2022/12/07 01:38:01;;;;;;;;;;;14.00;95.40;;;;;;5026567;28;20337;-66
2022/12/07 01:40:26;;;;;;;;;;;14.10;95.40;;;;;;5037331;28;19971;-66
2022/12/07 01:42:52;;;;;;;;;;;13.80;95.30;;;;;;5033305;28;19921;-65
2022/12/07 01:45:18;;;;;;;;;;;13.90;95.30;;;;;;5035843;28;20302;-66
2022/12/07 01:47:44;;;;;;;;;;;13.80;95.30;;;;;;5069412;28;19932;-66
2022/12/07 01:50:10;;;;;;;;;;;13.90;95.30;;;;;;5036100;28;19948;-66
2022/12/07 01:52:36;;;;;;;;;;;13.90;95.30;;;;;;5036916;28;20383;-64
2022/12/07 01:55:03;;;;;;;;;;;13.80;95.30;;;;;;5039568;28;19976;-64
2022/12/07 01:57:29;;;;;;;;;;;13.90;95.30;;;;;;5032413;28;19932;-64
2022/12/07 01:59:54;;;;;;;;;;;14.00;95.20;;;;;;5017810;28;19925;-64
2022/12/07 02:02:25;;;;;;;;;;;14.20;95.40;;;;;;5017253;28;20405;-64
2022/12/07 02:04:51;;;;;;;;;;;13.60;95.00;;;;;;5015522;28;19975;-66
2022/12/07 02:07:17;;;;;;;;;;;14.00;95.30;;;;;;5025911;28;19932;-64
2022/12/07 02:09:43;;;;;;;;;;;14.20;95.30;;;;;;5036592;28;19932;-65
2022/12/07 02:12:08;;;;;;;;;;;13.80;95.30;;;;;;5036371;28;20024;-64
2022/12/07 02:14:34;;;;;;;;;;;14.00;95.30;;;;;;5033942;28;19931;-63
2022/12/07 02:17:26;;;;;;;;;;;14.00;95.30;;;;;;5026886;28;19951;-64
2022/12/07 02:19:59;;;;;;;;;;;14.10;95.10;;;;;;5038665;28;19929;-64
2022/12/07 02:22:50;;;;;;;;;;;14.10;95.10;;;;;;5017264;28;19921;-64
2022/12/07 02:25:34;;;;;;;;;;;13.80;95.00;;;;;;5016992;28;20347;-63
2022/12/07 02:28:12;;;;;;;;;;;13.80;94.90;;;;;;5035616;28;20028;-64
2022/12/07 02:30:38;;;;;;;;;;;;;;;;;;5033063;28;19979;-68
2022/12/07 02:33:05;;;;;;;;;;;14.00;94.90;;;;;;5026601;28;19925;-65
2022/12/07 02:35:44;;;;;;;;;;;13.80;95.00;;;;;;5066970;28;19948;-66
2022/12/07 02:38:15;;;;;;;;;;;13.80;94.90;;;;;;5033458;28;19947;-66
2022/12/07 02:40:48;;;;;;;;;;;13.80;95.00;;;;;;5033315;28;19925;-64
2022/12/07 02:43:18;;;;;;;;;;;14.00;95.00;;;;;;5033874;28;19936;-64
2022/12/07 02:45:43;;;;;;;;;;;13.70;95.00;;;;;;5051546;28;20310;-64
2022/12/07 02:48:09;;;;;;;;;;;13.80;95.00;;;;;;5033400;28;19979;-64
2022/12/07 02:50:35;;;;;;;;;;;13.90;95.00;;;;;;5033622;28;20339;-64
2022/12/07 02:53:00;;;;;;;;;;;14.00;95.00;;;;;;5067431;28;19932;-64
2022/12/07 02:55:31;;;;;;;;;;;13.90;95.00;;;;;;5067297;28;20437;-64
2022/12/07 02:58:00;;;;;;;;;;;13.80;94.90;;;;;;5033596;28;20379;-64
2022/12/07 03:00:25;;;;;;;;;;;13.90;95.00;;;;;;5034565;28;19925;-65
2022/12/07 03:02:51;;;;;;;;;;;13.90;95.00;;;;;;5022649;28;19972;-64
2022/12/07 03:05:39;;;;;;;;;;;14.00;95.10;;;;;;5067270;28;19932;-64
2022/12/07 03:08:13;;;;;;;;;;;13.90;95.10;;;;;;5050695;28;19925;-64
2022/12/07 03:10:45;;;;;;;;;;;13.80;95.00;;;;;;5034319;28;20357;-64
2022/12/07 03:13:29;;;;;;;;;;;13.90;95.00;;;;;;5035042;28;20444;-64
2022/12/07 03:15:58;;;;;;;;;;;14.10;95.20;;;;;;5035650;28;19936;-64
2022/12/07 03:18:24;;;;;;;;;;;;;;;;;;5034180;28;19936;-64
2022/12/07 03:20:49;;;;;;;;;;;13.80;95.10;;;;;;5017311;28;20287;-64
2022/12/07 03:23:15;;;;;;;;;;;14.00;95.10;;;;;;5029454;28;20008;-64
2022/12/07 03:25:42;;;;;;;;;;;14.10;95.10;;;;;;5030155;28;19925;-64
2022/12/07 03:28:07;;;;;;;;;;;14.00;95.10;;;;;;5064578;28;19925;-65
2022/12/07 03:30:44;;;;;;;;;;;13.90;95.10;;;;;;5033386;28;20349;-64
2022/12/07 03:33:42;;;;;;;;;;;13.90;95.10;;;;;;5032645;28;19925;-64
2022/12/07 03:36:10;;;;;;;;;;;13.80;95.10;;;;;;5071734;28;19925;-64
2022/12/07 03:38:37;;;;;;;;;;;14.00;95.10;;;;;;5071743;28;20308;-64
2022/12/07 03:41:14;;;;;;;;;;;13.90;95.10;;;;;;5048407;28;19939;-64
2022/12/07 03:43:40;;;;;;;;;;;14.00;95.10;;;;;;5071014;28;19928;-65
2022/12/07 03:46:14;;;;;;;;;;;14.00;95.10;;;;;;5055183;28;20283;-64
2022/12/07 03:48:43;;;;;;;;;;;14.00;95.10;;;;;;5071706;28;20424;-64
2022/12/07 03:51:09;;;;;;;;;;;;;;;;;;5068301;28;19928;-64
2022/12/07 03:53:43;;;;;;;;;;;14.00;95.10;;;;;;5071556;28;19924;-64
2022/12/07 03:56:09;;;;;;;;;;;13.90;95.10;;;;;;5071577;28;20019;-65
2022/12/07 03:58:34;;;;;;;;;;;14.10;94.90;;;;;;5039699;28;20043;-64
2022/12/07 04:01:00;;;;;;;;;;;;;;;;;;5031946;28;20396;-64
2022/12/07 04:03:26;;;;;;;;;;;14.20;95.20;;;;;;5068551;28;20424;-64
2022/12/07 04:05:51;;;;;;;;;;;13.90;95.10;;;;;;5067762;28;20015;-64
2022/12/07 04:08:17;;;;;;;;;;;13.90;95.10;;;;;;5071430;28;19932;-63
2022/12/07 04:10:43;;;;;;;;;;;13.80;95.00;;;;;;5033896;28;19929;-63
2022/12/07 04:13:08;;;;;;;;;;;13.90;95.10;;;;;;5032484;28;19925;-64
2022/12/07 04:15:34;;;;;;;;;;;13.90;95.00;;;;;;5033228;28;19925;-64
2022/12/07 04:17:59;;;;;;;;;;;14.00;95.10;;;;;;5065446;28;19933;-64
2022/12/07 04:20:25;;;;;;;;;;;13.60;94.90;;;;;;5033230;28;19932;-64
2022/12/07 04:22:51;;;;;;;;;;;13.80;94.90;;;;;;5047271;28;19932;-64
2022/12/07 04:25:16;;;;;;;;;;;13.80;95.00;;;;;;5034357;28;20012;-63
2022/12/07 04:27:42;;;;;;;;;;;13.90;95.00;;;;;;5033790;28;20021;-63
2022/12/07 04:30:08;;;;;;;;;;;14.00;94.70;;;;;;5032215;28;20458;-64
2022/12/07 04:32:34;;;;;;;;;;;;;;;;;;5031085;28;19931;-63
2022/12/07 04:34:59;;;;;;;;;;;13.90;95.00;;;;;;5029072;28;19933;-64
2022/12/07 04:37:25;;;;;;;;;;;13.70;94.70;;;;;;5031794;28;20405;-65
2022/12/07 04:39:51;;;;;;;;;;;13.80;94.40;;;;;;5033650;28;19971;-63
2022/12/07 04:42:16;;;;;;;;;;;13.90;94.70;;;;;;5032881;28;19926;-63
2022/12/07 04:44:42;;;;;;;;;;;13.80;94.50;;;;;;5031500;28;19925;-63
2022/12/07 04:47:07;;;;;;;;;;;13.80;94.50;;;;;;5030462;28;20004;-64
2022/12/07 04:49:33;;;;;;;;;;;13.50;94.50;;;;;;5018526;28;20045;-64
2022/12/07 04:51:59;;;;;;;;;;;14.10;94.70;;;;;;5023637;28;19972;-64
2022/12/07 04:54:25;;;;;;;;;;;;;;;;;;5030591;28;19930;-64
2022/12/07 04:56:50;;;;;;;;;;;13.80;94.70;;;;;;5030334;28;19932;-64
2022/12/07 04:59:16;;;;;;;;;;;13.90;94.70;;;;;;5026378;28;20445;-63
2022/12/07 05:01:42;;;;;;;;;;;13.70;94.70;;;;;;5026948;28;19925;-62
2022/12/07 05:04:07;;;;;;;;;;;13.50;94.60;;;;;;5032519;28;19925;-63
2022/12/07 05:06:33;;;;;;;;;;;13.90;94.70;;;;;;5014146;28;19960;-64
2022/12/07 05:08:59;;;;;;;;;;;13.60;94.60;;;;;;5031707;28;19921;-64
2022/12/07 05:11:40;;;;;;;;;;;14.00;94.70;;;;;;5065031;28;19955;-63
2022/12/07 05:14:18;;;;;;;;;;;13.70;94.50;;;;;;5047757;28;19932;-63
2022/12/07 05:16:44;;;;;;;;;;;13.40;94.50;;;;;;5015367;28;20444;-65
2022/12/07 05:19:10;;;;;;;;;;;13.80;94.60;;;;;;5031186;28;19932;-64
2022/12/07 05:21:36;;;;;;;;;;;13.90;94.60;;;;;;5033138;28;20375;-63
2022/12/07 05:24:01;;;;;;;;;;;13.70;94.60;;;;;;5022474;28;20371;-64
2022/12/07 05:26:27;;;;;;;;;;;13.90;94.70;;;;;;5031761;28;20436;-64
2022/12/07 05:28:53;;;;;;;;;;;14.00;94.70;;;;;;5063520;28;20310;-63
2022/12/07 05:31:19;;;;;;;;;;;13.90;94.30;;;;;;5063385;28;19925;-64
2022/12/07 05:33:44;;;;;;;;;;;13.80;94.60;;;;;;5030455;28;19925;-63
2022/12/07 05:36:10;;;;;;;;;;;13.70;94.60;;;;;;5064572;28;19925;-64
2022/12/07 05:38:35;;;;;;;;;;;13.90;94.40;;;;;;5065459;28;19932;-64
2022/12/07 05:41:02;;;;;;;;;;;13.80;94.60;;;;;;5046590;28;20288;-62
2022/12/07 05:43:28;;;;;;;;;;;13.70;94.50;;;;;;5030778;28;20400;-63
2022/12/07 05:45:53;;;;;;;;;;;13.60;94.50;;;;;;5063680;28;19925;-63
2022/12/07 05:48:19;;;;;;;;;;;;;;;;;;5032713;28;19932;-63
2022/12/07 05:50:47;;;;;;;;;;;13.90;94.50;;;;;;5033469;28;19957;-65
2022/12/07 05:53:13;;;;;;;;;;;13.70;94.40;;;;;;5031582;28;19929;-64
2022/12/07 05:55:39;;;;;;;;;;;;;;;;;;5031571;28;20351;-63
2022/12/07 06:00:49;;;;;;;;;;;13.70;94.50;;;;;;5030943;28;20016;-63
2022/12/07 06:03:15;;;;;;;;;;;13.60;94.50;;;;;;5031292;28;19925;-64
2022/12/07 06:05:41;;;;;;;;;;;13.90;94.40;;;;;;5030746;28;19932;-63
2022/12/07 06:08:07;;;;;;;;;;;13.60;94.40;;;;;;5068218;28;20287;-63
2022/12/07 06:10:32;;;;;;;;;;;13.90;94.50;;;;;;5018237;28;19936;-64
2022/12/07 06:12:58;;;;;;;;;;;13.60;94.40;;;;;;5034089;28;19925;-65
2022/12/07 06:15:23;;;;;;;;;;;14.10;94.50;;;;;;5020465;28;20433;-63
2022/12/07 06:17:49;;;;;;;;;;;13.70;94.50;;;;;;5031492;28;19925;-65
2022/12/07 06:20:15;;;;;;;;;;;13.90;94.20;;;;;;5067599;28;19926;-64
2022/12/07 06:22:40;;;;;;;;;;;13.80;94.50;;;;;;5033939;28;19925;-65
2022/12/07 06:25:07;;;;;;;;;;;;;;;;;;5035497;28;19975;-64
2022/12/07 06:27:32;;;;;;;;;;;13.60;94.40;;;;;;5034472;28;19980;-64
2022/12/07 06:29:58;;;;;;;;;;;13.80;94.50;;;;;;5033752;28;20333;-64
2022/12/07 06:32:24;;;;;;;;;;;13.80;94.50;;;;;;5028216;28;19925;-66
2022/12/07 06:34:50;;;;;;;;;;;13.70;94.40;;;;;;5065401;28;19925;-66
2022/12/07 06:37:15;;;;;;;;;;;13.90;94.50;;;;;;5034035;28;19921;-66
2022/12/07 06:39:41;;;;;;;;;;;13.70;94.40;;;;;;5035684;28;19980;-64
2022/12/07 06:42:06;;;;;;;;;;;13.80;94.40;;;;;;5031767;28;19925;-64
2022/12/07 06:44:32;;;;;;;;;;;13.70;94.40;;;;;;5034422;28;19929;-63
2022/12/07 06:46:58;;;;;;;;;;;14.00;94.50;;;;;;5032814;28;19929;-63
2022/12/07 06:49:24;;;;;;;;;;;13.70;94.50;;;;;;5024917;28;19925;-63
2022/12/07 06:51:49;;;;;;;;;;;13.80;94.40;;;;;;5031791;28;20020;-63
2022/12/07 06:54:15;;;;;;;;;;;13.90;94.50;;;;;;5036059;28;19925;-63
2022/12/07 06:56:41;;;;;;;;;;;14.10;94.50;;;;;;5016559;28;19925;-63
2022/12/07 06:59:06;;;;;;;;;;;13.70;94.40;;;;;;5022067;28;19933;-63
2022/12/07 07:01:32;;;;;;;;;;;13.80;94.40;;;;;;5017080;28;20018;-64
2022/12/07 07:03:58;;;;;;;;;;;13.80;94.40;;;;;;5022169;28;20381;-66
2022/12/07 07:06:23;;;;;;;;;;;13.80;94.50;;;;;;5016029;28;19926;-67
2022/12/07 07:08:49;;;;;;;;;;;13.50;94.40;;;;;;5028473;28;19974;-66
2022/12/07 07:11:14;;;;;;;;;;;13.80;94.50;;;;;;5035805;28;20424;-68
2022/12/07 07:13:40;;;;;;;;;;;13.80;94.50;;;;;;5034136;28;19928;-67
2022/12/07 07:16:06;;;;;;;;;;;13.70;94.40;;;;;;4984948;28;19958;-66
2022/12/07 07:18:32;;;;;;;;;;;13.70;94.40;;;;;;5017303;28;19925;-65
2022/12/07 07:20:57;;;;;;;;;;;13.70;94.40;;;;;;5033366;28;19929;-65
2022/12/07 07:23:23;;;;;;;;;;;14.00;94.40;;;;;;5029842;28;20280;-65
2022/12/07 07:25:49;;;;;;;;;;;13.70;94.40;;;;;;5061927;28;20287;-63
2022/12/07 07:28:14;;;;;;;;;;;13.80;94.40;;;;;;5016073;28;19932;-63
2022/12/07 07:30:40;;;;;;;;;;;13.90;94.40;;;;;;5033709;28;19940;-67
2022/12/07 07:33:06;;;;;;;;;;;13.60;94.30;;;;;;5033200;28;19933;-66
2022/12/07 07:35:32;;;;;;;;;;;13.90;94.30;;;;;;5031947;28;19925;-66
2022/12/07 07:37:58;;;;;;;;;;;;;;;;;;5031866;28;19948;-66
2022/12/07 07:40:24;;;;;;;;;;;13.70;94.20;;;;;;5030230;28;20379;-66
2022/12/07 07:42:50;;;;;;;;;;;13.70;94.20;;;;;;5032582;28;19932;-65
2022/12/07 07:45:15;;;;;;;;;;;13.70;94.00;;;;;;5025539;28;19925;-63
2022/12/07 07:47:41;;;;;;;;;;;13.70;94.30;;;;;;5034438;28;19972;-65
2022/12/07 07:50:07;;;;;;;;;;;13.70;94.20;;;;;;5032760;28;20497;-64
2022/12/07 07:52:32;;;;;;;;;;;13.70;94.20;;;;;;5034008;28;19929;-64
2022/12/07 07:54:58;;;;;;;;;;;13.60;94.10;;;;;;5032570;28;19930;-64
2022/12/07 07:57:24;;;;;;;;;;;;;;;;;;5029300;28;19932;-64
2022/12/07 07:59:50;;;;;;;;;;;13.60;94.10;;;;;;5032912;28;19932;-64
2022/12/07 08:02:16;;;;;;;;;;;;;;;;;;5033689;28;19925;-65
2022/12/07 08:04:41;;;;;;;;;;;13.80;94.10;;;;;;5033619;28;19925;-63
2022/12/07 08:07:07;;;;;;;;;;;13.80;94.10;;;;;;5028897;28;19979;-65
2022/12/07 08:09:33;;;;;;;;;;;13.70;94.00;;;;;;5060558;28;20482;-63
2022/12/07 08:11:58;;;;;;;;;;;13.90;94.10;;;;;;5021870;28;19969;-63
2022/12/07 08:14:24;;;;;;;;;;;13.90;94.00;;;;;;5023207;28;19948;-64
2022/12/07 08:16:50;;;;;;;;;;;13.70;94.00;;;;;;5032076;28;19947;-64
2022/12/07 08:19:15;;;;;;;;;;;14.00;94.10;;;;;;5033494;28;20356;-63
2022/12/07 08:21:41;;;;;;;;;;;13.60;94.00;;;;;;5031449;28;20008;-63
2022/12/07 08:24:07;;;;;;;;;;;13.80;94.00;;;;;;5033561;28;19927;-64
2022/12/07 08:26:33;;;;;;;;;;;;;;;;;;5033227;28;20444;-64
2022/12/07 08:28:59;;;;;;;;;;;13.50;93.90;;;;;;5028665;28;19967;-63
2022/12/07 08:31:25;;;;;;;;;;;;;;;;;;5030719;28;19929;-63
2022/12/07 08:33:51;;;;;;;;;;;13.70;93.90;;;;;;5032115;28;20350;-63
2022/12/07 08:36:16;;;;;;;;;;;13.80;93.90;;;;;;5064377;28;19925;-63
2022/12/07 08:38:45;;;;;;;;;;;13.80;93.90;;;;;;5030071;28;19932;-64
2022/12/07 08:41:11;;;;;;;;;;;;;;;;;;5032345;28;19925;-63
2022/12/07 08:43:37;;;;;;;;;;;13.70;93.80;;;;;;5028932;28;19925;-63
2022/12/07 08:46:06;;;;;;;;;;;13.80;93.80;;;;;;5062322;28;19940;-64
2022/12/07 08:48:32;;;;;;;;;;;14.10;93.90;;;;;;5033232;28;20408;-63
2022/12/07 08:50:58;;;;;;;;;;;;;;;;;;5063596;28;19978;-65
2022/12/07 08:53:24;;;;;;;;;;;13.90;93.90;;;;;;5029296;28;19925;-64
2022/12/07 08:55:50;;;;;;;;;;;14.00;93.90;;;;;;5014048;28;19932;-64
2022/12/07 08:58:17;;;;;;;;;;;14.00;93.80;;;;;;5043837;28;19964;-64
2022/12/07 09:00:43;;;;;;;;;;;14.00;93.90;;;;;;5059167;28;19929;-65
2022/12/07 09:03:08;;;;;;;;;;;13.90;93.80;;;;;;5051600;28;19925;-64
2022/12/07 09:05:34;;;;;;;;;;;;;;;;;;5028393;28;19925;-65
2022/12/07 09:08:01;;;;;;;;;;;14.00;93.70;;;;;;5017371;28;19932;-63
2022/12/07 09:10:27;;;;;;;;;;;;;;;;;;5061001;28;19926;-64
2022/12/07 09:12:52;;;;;;;;;;;13.90;93.80;;;;;;5031014;28;19929;-63
2022/12/07 09:15:18;;;;;;;;;;;14.10;93.90;;;;;;5029061;28;19932;-64
2022/12/07 09:17:43;;;;;;;;;;;13.90;93.80;;;;;;5024663;28;19926;-64
2022/12/07 09:20:09;;;;;;;;;;;13.90;93.90;;;;;;5061098;28;20379;-64
2022/12/07 09:22:35;;;;;;;;;;;14.00;93.90;;;;;;5021921;28;19925;-64
2022/12/07 09:25:01;;;;;;;;;;;14.00;93.90;;;;;;5033442;28;19929;-64
2022/12/07 09:27:27;;;;;;;;;;;14.00;93.90;;;;;;5065039;28;20016;-64
2022/12/07 09:29:53;;;;;;;;;;;14.20;93.90;;;;;;5031031;28;19929;-63
2022/12/07 09:32:18;;;;;;;;;;;14.10;93.90;;;;;;5032013;28;19932;-63
2022/12/07 09:34:44;;;;;;;;;;;14.30;93.90;;;;;;4999598;28;19925;-63
2022/12/07 09:37:10;;;;;;;;;;;14.20;93.80;;;;;;5029864;28;20307;-63
2022/12/07 09:39:38;;;;;;;;;;;14.20;93.80;;;;;;5014882;28;20061;-64
2022/12/07 09:42:04;;;;;;;;;;;14.30;93.80;;;;;;5068003;28;19925;-63
2022/12/07 09:44:30;;;;;;;;;;;14.00;93.70;;;;;;5019066;28;20441;-63
2022/12/07 09:46:56;;;;;;;;;;;14.20;93.80;;;;;;5052540;28;19932;-64
2022/12/07 09:49:23;;;;;;;;;;;14.20;93.80;;;;;;5036617;28;19972;-63
2022/12/07 09:52:09;;;;;;;;;;;14.30;93.80;;;;;;5018692;28;19926;-64
2022/12/07 09:54:35;;;;;;;;;;;14.40;93.80;;;;;;5035709;28;19984;-64
2022/12/07 09:57:01;;;;;;;;;;;14.10;93.70;;;;;;5004728;28;19969;-64
2022/12/07 09:59:27;;;;;;;;;;;14.50;93.70;;;;;;5056357;28;20370;-63
2022/12/07 10:01:52;;;;;;;;;;;14.20;93.50;;;;;;5029937;28;19929;-64
2022/12/07 10:04:19;;;;;;;;;;;14.50;93.60;;;;;;5035357;28;19925;-65
2022/12/07 10:06:45;;;;;;;;;;;14.60;93.70;;;;;;5036404;28;20005;-66
2022/12/07 10:09:11;;;;;;;;;;;14.30;93.70;;;;;;5068805;28;19925;-63
2022/12/07 10:11:57;;;;;;;;;;;14.50;93.80;;;;;;5034653;28;19956;-63
2022/12/07 10:14:22;;;;;;;;;;;14.30;93.70;;;;;;5021089;28;19936;-63
2022/12/07 10:16:48;;;;;;;;;;;14.50;93.80;;;;;;5017110;28;20389;-65
2022/12/07 10:19:18;;;;;;;;;;;14.40;93.80;;;;;;5016978;28;19926;-63
2022/12/07 10:21:58;;;;;;;;;;;14.50;93.80;;;;;;5020945;28;20295;-63
2022/12/07 10:24:24;;;;;;;;;;;14.20;93.70;;;;;;5036707;28;20392;-64
2022/12/07 10:26:49;;;;;;;;;;;14.40;93.80;;;;;;5036380;28;19976;-63
2022/12/07 10:29:30;;;;;;;;;;;14.30;93.70;;;;;;5065641;28;19987;-64
2022/12/07 10:31:57;;;;;;;;;;;14.50;93.70;;;;;;5032070;28;20007;-64
2022/12/07 10:34:24;;;;;;;;;;;14.20;93.60;;;;;;5018154;28;19925;-64
2022/12/07 10:36:50;;;;;;;;;;;14.10;93.60;;;;;;5068162;28;20016;-63
2022/12/07 10:39:19;;;;;;;;;;;14.30;93.70;;;;;;5018281;28;20051;-63
2022/12/07 10:41:58;;;;;;;;;;;14.30;93.60;;;;;;5031100;28;19964;-63
2022/12/07 10:44:24;;;;;;;;;;;;;;;;;;5033713;28;19925;-64
2022/12/07 10:46:58;;;;;;;;;;;14.40;93.60;;;;;;5016945;28;19926;-64
2022/12/07 10:49:33;;;;;;;;;;;14.50;93.70;;;;;;5029068;28;19921;-63
2022/12/07 10:52:02;;;;;;;;;;;14.40;93.60;;;;;;5066549;28;19929;-62
2022/12/07 10:54:28;;;;;;;;;;;;;;;;;;5066104;28;20394;-63
2022/12/07 10:56:54;;;;;;;;;;;;;;;;;;5034446;28;19925;-63
2022/12/07 10:59:38;;;;;;;;;;;14.30;93.60;;;;;;5035493;28;20043;-63
2022/12/07 11:02:12;;;;;;;;;;;14.40;93.60;;;;;;5031350;28;20348;-64
2022/12/07 11:04:51;;;;;;;;;;;14.40;93.60;;;;;;5035871;28;19933;-64
2022/12/07 11:07:17;;;;;;;;;;;;;;;;;;5029099;28;19976;-67
2022/12/07 11:09:55;;;;;;;;;;;14.40;93.60;;;;;;5029992;28;19925;-63
2022/12/07 11:12:24;;;;;;;;;;;14.20;93.60;;;;;;5047871;28;19975;-63
2022/12/07 11:14:58;;;;;;;;;;;14.40;93.60;;;;;;5019272;28;19940;-64
2022/12/07 11:17:43;;;;;;;;;;;14.40;93.60;;;;;;5016026;28;19932;-64
2022/12/07 11:20:08;;;;;;;;;;;14.50;93.60;;;;;;5055545;28;19930;-64
2022/12/07 11:22:57;;;;;;;;;;;14.60;93.60;;;;;;5029564;28;20072;-64
2022/12/07 11:25:27;;;;;;;;;;;14.70;93.60;;;;;;5049055;28;19983;-63
2022/12/07 11:28:02;;;;;;;;;;;14.60;93.50;;;;;;5067577;28;19925;-63
2022/12/07 11:30:28;;;;;;;;;;;14.60;93.50;;;;;;5050544;28;20440;-63
2022/12/07 11:33:00;;;;;;;;;;;14.70;93.50;;;;;;5017215;28;20406;-64
2022/12/07 11:35:38;;;;;;;;;;;14.80;93.50;;;;;;5059349;28;19925;-64
2022/12/07 11:38:08;;;;;;;;;;;14.40;93.40;;;;;;5014648;28;20362;-64
2022/12/07 11:40:35;;;;;;;;;;;15.00;93.50;;;;;;5015664;28;19978;-64
2022/12/07 11:43:17;;;;;;;;;;;14.90;93.50;;;;;;5016777;28;19925;-64
2022/12/07 11:45:42;;;;;;;;;;;15.10;93.60;;;;;;5016581;28;20390;-64
2022/12/07 11:48:16;;;;;;;;;;;14.80;93.50;;;;;;5049406;28;19979;-64
2022/12/07 11:50:42;;;;;;;;;;;15.00;93.50;;;;;;5013359;28;20423;-64
2022/12/07 11:53:08;;;;;;;;;;;15.20;93.50;;;;;;5015497;28;20367;-63
2022/12/07 11:55:44;;;;;;;;;;;15.00;93.40;;;;;;5015175;28;19933;-63
2022/12/07 11:58:24;;;;;;;;;;;15.10;93.40;;;;;;5011879;28;19925;-67
2022/12/07 12:00:50;;;;;;;;;;;15.00;93.40;;;;;;5033488;28;19932;-63
2022/12/07 12:03:19;;;;;;;;;;;15.40;93.40;;;;;;5023877;28;19925;-64
2022/12/07 12:05:44;;;;;;;;;;;15.30;93.40;;;;;;4997163;28;19925;-63
2022/12/07 12:08:15;;;;;;;;;;;15.40;93.50;;;;;;5025481;28;20382;-63
2022/12/07 12:10:51;;;;;;;;;;;15.20;93.40;;;;;;5016828;28;19921;-64
2022/12/07 12:13:20;;;;;;;;;;;15.20;93.50;;;;;;5050106;28;19925;-64
2022/12/07 12:15:46;;;;;;;;;;;;;;;;;;5064945;28;20383;-64
2022/12/07 12:18:21;;;;;;;;;;;15.20;93.40;;;;;;5064941;28;20465;-64
2022/12/07 12:20:50;;;;;;;;;;;15.00;93.40;;;;;;5066201;28;19932;-64
2022/12/07 12:23:20;;;;;;;;;;;15.10;93.50;;;;;;5049565;28;19976;-63
2022/12/07 12:25:46;;;;;;;;;;;15.00;93.50;;;;;;5049600;28;19925;-64
2022/12/07 12:28:23;;;;;;;;;;;15.10;93.50;;;;;;5015558;28;19936;-65
2022/12/07 12:31:09;;;;;;;;;;;14.70;93.40;;;;;;5014150;28;19977;-64
2022/12/07 12:33:35;;;;;;;;;;;15.10;93.50;;;;;;5028724;28;19926;-64
2022/12/07 12:36:20;;;;;;;;;;;15.10;93.50;;;;;;5013254;28;19932;-63
2022/12/07 12:39:14;;;;;;;;;;;14.70;93.50;;;;;;5052637;28;19925;-64
2022/12/07 12:44:14;;;;;;;;;;;15.00;93.40;;;;;;5027052;28;19921;-63
2022/12/07 12:46:57;;;;;;;;;;;15.00;93.50;;;;;;5066184;28;19926;-63
2022/12/07 12:49:22;;;;;;;;;;;15.10;93.60;;;;;;5066149;28;19936;-64
2022/12/07 12:51:51;;;;;;;;;;;15.10;93.60;;;;;;5065925;28;20314;-64
2022/12/07 12:54:17;;;;;;;;;;;15.00;93.60;;;;;;5049137;28;19988;-64
2022/12/07 12:56:47;;;;;;;;;;;14.90;93.60;;;;;;5020378;28;19969;-64
2022/12/07 12:59:39;;;;;;;;;;;14.80;93.50;;;;;;5012812;28;19936;-63
2022/12/07 13:02:23;;;;;;;;;;;15.00;93.60;;;;;;5056487;28;19932;-63
2022/12/07 13:04:50;;;;;;;;;;;14.80;93.50;;;;;;5065616;28;20015;-64
2022/12/07 13:07:35;;;;;;;;;;;14.90;93.60;;;;;;5032338;28;19925;-64
2022/12/07 13:10:00;;;;;;;;;;;15.00;93.60;;;;;;5051590;28;19929;-64
2022/12/07 13:12:26;;;;;;;;;;;14.70;93.60;;;;;;4996782;28;19929;-63
2022/12/07 13:14:55;;;;;;;;;;;14.70;93.60;;;;;;5012897;28;20288;-63
2022/12/07 13:17:30;;;;;;;;;;;14.80;93.60;;;;;;5000179;28;19929;-63
2022/12/07 13:19:56;;;;;;;;;;;14.80;93.60;;;;;;5035772;28;19925;-64
2022/12/07 13:22:40;;;;;;;;;;;14.80;93.60;;;;;;5020175;28;20016;-64
2022/12/07 13:25:09;;;;;;;;;;;14.80;93.60;;;;;;5019820;28;19925;-63
2022/12/07 13:27:37;;;;;;;;;;;14.90;93.60;;;;;;5069438;28;19925;-64
2022/12/07 13:30:03;;;;;;;;;;;14.60;93.60;;;;;;5019020;28;19952;-64
2022/12/07 13:32:29;;;;;;;;;;;14.50;93.50;;;;;;5052610;28;19933;-64
2022/12/07 13:34:55;;;;;;;;;;;14.70;93.60;;;;;;5017472;28;19925;-64
2022/12/07 13:37:21;;;;;;;;;;;14.70;93.60;;;;;;5033185;28;19932;-63
2022/12/07 13:39:47;;;;;;;;;;;14.90;93.70;;;;;;5016218;28;20405;-63
2022/12/07 13:42:18;;;;;;;;;;;14.40;93.50;;;;;;5021706;28;20387;-63
2022/12/07 13:44:43;;;;;;;;;;;14.60;93.60;;;;;;5045007;28;19925;-64
2022/12/07 13:47:12;;;;;;;;;;;14.70;93.60;;;;;;5016118;28;19926;-64
2022/12/07 13:49:39;;;;;;;;;;;14.70;93.60;;;;;;5000047;28;19926;-63
2022/12/07 13:52:18;;;;;;;;;;;14.70;93.70;;;;;;5002640;28;19933;-64
2022/12/07 13:54:57;;;;;;;;;;;14.60;93.70;;;;;;5036055;28;19925;-63
2022/12/07 13:57:24;;;;;;;;;;;14.60;93.60;;;;;;5036802;28;20391;-64
2022/12/07 13:59:49;;;;;;;;;;;14.60;93.50;;;;;;5052328;28;19925;-64
2022/12/07 14:02:23;;;;;;;;;;;14.60;93.70;;;;;;5036751;28;19932;-64
2022/12/07 14:04:49;;;;;;;;;;;14.40;93.60;;;;;;5036974;28;19933;-63
2022/12/07 14:07:32;;;;;;;;;;;14.20;93.70;;;;;;5035835;28;19925;-63
2022/12/07 14:10:05;;;;;;;;;;;14.50;93.70;;;;;;5032029;28;20322;-63
2022/12/07 14:12:31;;;;;;;;;;;14.60;93.80;;;;;;5015945;28;20295;-64
2022/12/07 14:14:56;;;;;;;;;;;14.50;93.80;;;;;;5017127;28;19926;-63
2022/12/07 14:17:23;;;;;;;;;;;14.40;93.80;;;;;;5016755;28;19933;-63
2022/12/07 14:19:49;;;;;;;;;;;14.40;93.80;;;;;;5015405;28;20383;-64
2022/12/07 14:22:38;;;;;;;;;;;14.50;93.80;;;;;;5020147;28;19925;-64
2022/12/07 14:25:03;;;;;;;;;;;14.50;93.80;;;;;;5054315;28;19932;-63
2022/12/07 14:27:30;;;;;;;;;;;;;;;;;;5053004;28;19925;-64
2022/12/07 14:29:56;;;;;;;;;;;14.20;93.70;;;;;;5017150;28;19997;-63
2022/12/07 14:32:28;;;;;;;;;;;14.20;93.70;;;;;;5016848;28;19976;-63
2022/12/07 14:35:10;;;;;;;;;;;14.20;93.70;;;;;;5017163;28;20019;-63
2022/12/07 14:37:36;;;;;;;;;;;14.40;93.80;;;;;;5023734;28;19925;-63